Maersk Teal — S6HK — position and weather

sailwx.info

Track history (hours):
 
Tides and Currents Weather Stations Pressure Air Temp Water Temp Dewpoint Dewpoint Depression Visibility Wind Speed Wind Dir Waves Ship Positions

Maersk Teal

Last reported at 2018-Apr-23 01:37 UTC. Time now 2018-Apr-24 16:39 UTC.
Position N 22°42' W 092°26'.

Type: Cargo ship. MMSI: 564755000.

Date/timePositionNaut miles runAvg speedWind from/ knotsBaromVisibWave heightAir tempDewpointWater temp
2018-Apr-23 01:37N 22°42' W 092°26'214.4
2018-Apr-23 01:30N 22°42' W 092°24'18914.6
2018-Apr-22 12:32N 22°45' W 088°59'015.6
2018-Apr-22 12:30N 22°45' W 088°58'815.4
2018-Apr-22 12:00N 22°43' W 088°50'  
2018-Apr-18 03:39N 09°36' W 080°02'316.8
2018-Apr-18 03:28N 09°35' W 079°59'817.0
2018-Apr-18 03:01N 09°30' W 079°54'612.8
2018-Apr-18 02:30N 09°23' W 079°54'1 2.3
2018-Apr-18 01:58N 09°22' W 079°53'0 0.0
2018-Apr-18 01:28N 09°22' W 079°53'0 0.0
2018-Apr-18 00:58N 09°22' W 079°53'0 0.0
2018-Apr-18 00:28N 09°22' W 079°53'0 0.0
2018-Apr-17 23:58N 09°22' W 079°53'0 0.0
2018-Apr-17 23:28N 09°22' W 079°53'0 0.0
2018-Apr-17 22:58N 09°22' W 079°53'0 0.0
2018-Apr-17 22:28N 09°22' W 079°53'0 0.0
2018-Apr-17 21:58N 09°22' W 079°53'0 0.0
2018-Apr-17 21:28N 09°22' W 079°53'0 0.0
2018-Apr-17 20:58N 09°22' W 079°53'0 0.0
2018-Apr-17 20:28N 09°22' W 079°53'0 0.0
2018-Apr-17 19:58N 09°22' W 079°53'0 0.0
2018-Apr-17 19:28N 09°22' W 079°53'0 0.0
2018-Apr-17 18:58N 09°22' W 079°53'0 0.0
2018-Apr-17 18:28N 09°22' W 079°53'0 0.0
2018-Apr-17 17:58N 09°22' W 079°53'0 0.0
2018-Apr-17 17:28N 09°22' W 079°53'0 0.0
2018-Apr-17 16:58N 09°22' W 079°53'0 0.0
2018-Apr-17 16:28N 09°22' W 079°53'0 0.0
2018-Apr-17 15:58N 09°22' W 079°53'0 0.0
2018-Apr-17 15:28N 09°22' W 079°53'0 0.0
2018-Apr-17 14:58N 09°22' W 079°53'0 0.0
2018-Apr-17 14:28N 09°22' W 079°53'0 0.0
2018-Apr-17 13:58N 09°22' W 079°53'0 0.0
2018-Apr-17 13:28N 09°22' W 079°53'0 0.0
2018-Apr-17 12:58N 09°22' W 079°53'0 0.0
2018-Apr-17 12:28N 09°22' W 079°53'0 1.0
2018-Apr-17 12:01N 09°22' W 079°54'4 7.7
2018-Apr-17 11:30N 09°26' W 079°54'4 5.9
2018-Apr-17 10:45N 09°30' W 079°52'312.1
2018-Apr-17 10:28N 09°34' W 079°52'24215.8
2018-Apr-16 19:09N 10°18' W 075°50'316.9
2018-Apr-16 19:00N 10°18' W 075°48'816.3
2018-Apr-16 18:30N 10°19' W 075°39'610.9
2018-Apr-16 17:59N 10°19' W 075°34'5 9.1
2018-Apr-16 17:29N 10°23' W 075°31'0 0.5
2018-Apr-16 16:58N 10°23' W 075°31'0 0.0
2018-Apr-16 16:28N 10°23' W 075°31'0 0.0
2018-Apr-16 15:58N 10°23' W 075°31'0 0.0
2018-Apr-16 15:28N 10°23' W 075°31'0 0.0
2018-Apr-16 14:58N 10°23' W 075°31'0 0.0
2018-Apr-16 14:28N 10°23' W 075°31'0 0.0
2018-Apr-16 13:58N 10°23' W 075°31'0 0.0
2018-Apr-16 13:22N 10°23' W 075°31'0 0.0
2018-Apr-16 12:58N 10°23' W 075°31'0 0.0
2018-Apr-16 12:28N 10°23' W 075°31'0 0.0
2018-Apr-16 11:58N 10°23' W 075°31'0 0.0
2018-Apr-16 11:28N 10°23' W 075°31'0 0.0
2018-Apr-16 10:58N 10°23' W 075°31'0 0.0
2018-Apr-16 10:28N 10°23' W 075°31'0 0.0
2018-Apr-16 09:58N 10°23' W 075°31'0 0.0
2018-Apr-16 09:28N 10°23' W 075°31'0 0.0
2018-Apr-16 08:58N 10°23' W 075°31'0 0.0
2018-Apr-16 08:28N 10°23' W 075°31'0 0.1
2018-Apr-16 07:58N 10°23' W 075°31'0 0.0
2018-Apr-16 07:28N 10°23' W 075°31'0 0.0
2018-Apr-16 06:58N 10°23' W 075°31'0 0.1
2018-Apr-16 06:28N 10°23' W 075°31'0 0.0
2018-Apr-16 05:58N 10°23' W 075°31'0 0.0
2018-Apr-16 05:28N 10°23' W 075°31'0 0.0
2018-Apr-16 04:58N 10°23' W 075°31'0 0.0
2018-Apr-16 04:28N 10°23' W 075°31'0 0.0
2018-Apr-16 03:58N 10°23' W 075°31'0 0.0
2018-Apr-16 03:28N 10°23' W 075°31'0 0.0
2018-Apr-16 02:59N 10°23' W 075°31'2 4.3
2018-Apr-16 02:30N 10°21' W 075°32'5 9.0
2018-Apr-16 01:59N 10°19' W 075°36'3 6.5
2018-Apr-16 01:30N 10°19' W 075°39'3 6.4
2018-Apr-16 00:59N 10°17' W 075°42'1 1.5
2018-Apr-16 00:28N 10°18' W 075°43'2 3.5
2018-Apr-15 23:59N 10°20' W 075°43'510.1
2018-Apr-15 23:30N 10°23' W 075°47'4 7.7
2018-Apr-15 22:59N 10°26' W 075°48'510.4
2018-Apr-15 22:29N 10°31' W 075°48'2 3.9
2018-Apr-15 21:57N 10°33' W 075°50'713.6
2018-Apr-15 21:25N 10°40' W 075°49'614.3
2018-Apr-15 20:59N 10°46' W 075°48'714.0
2018-Apr-15 20:29N 10°53' W 075°49'  
Track history (hours):
 
Tides and Currents Weather Stations Pressure Air Temp Water Temp Dewpoint Dewpoint Depression Visibility Wind Speed Wind Dir Waves Ship Positions

Maersk Teal

Last reported at 2018-Apr-23 01:37 UTC. Time now 2018-Apr-24 16:39 UTC.
Position N 22°42' W 092°26'.

Type: Cargo ship. MMSI: 564755000.

Date/timePositionNaut miles runAvg speedWind from/ knotsBaromVisibWave heightAir tempDewpointWater temp
2018-Apr-23 01:37N 22°42' W 092°26'214.4
2018-Apr-23 01:30N 22°42' W 092°24'18914.6
2018-Apr-22 12:32N 22°45' W 088°59'015.6
2018-Apr-22 12:30N 22°45' W 088°58'815.4
2018-Apr-22 12:00N 22°43' W 088°50'  
2018-Apr-18 03:39N 09°36' W 080°02'316.8
2018-Apr-18 03:28N 09°35' W 079°59'817.0
2018-Apr-18 03:01N 09°30' W 079°54'612.8
2018-Apr-18 02:30N 09°23' W 079°54'1 2.3
2018-Apr-18 01:58N 09°22' W 079°53'0 0.0
2018-Apr-18 01:28N 09°22' W 079°53'0 0.0
2018-Apr-18 00:58N 09°22' W 079°53'0 0.0
2018-Apr-18 00:28N 09°22' W 079°53'0 0.0
2018-Apr-17 23:58N 09°22' W 079°53'0 0.0
2018-Apr-17 23:28N 09°22' W 079°53'0 0.0
2018-Apr-17 22:58N 09°22' W 079°53'0 0.0
2018-Apr-17 22:28N 09°22' W 079°53'0 0.0
2018-Apr-17 21:58N 09°22' W 079°53'0 0.0
2018-Apr-17 21:28N 09°22' W 079°53'0 0.0
2018-Apr-17 20:58N 09°22' W 079°53'0 0.0
2018-Apr-17 20:28N 09°22' W 079°53'0 0.0
2018-Apr-17 19:58N 09°22' W 079°53'0 0.0
2018-Apr-17 19:28N 09°22' W 079°53'0 0.0
2018-Apr-17 18:58N 09°22' W 079°53'0 0.0
2018-Apr-17 18:28N 09°22' W 079°53'0 0.0
2018-Apr-17 17:58N 09°22' W 079°53'0 0.0
2018-Apr-17 17:28N 09°22' W 079°53'0 0.0
2018-Apr-17 16:58N 09°22' W 079°53'0 0.0
2018-Apr-17 16:28N 09°22' W 079°53'0 0.0
2018-Apr-17 15:58N 09°22' W 079°53'0 0.0
2018-Apr-17 15:28N 09°22' W 079°53'0 0.0
2018-Apr-17 14:58N 09°22' W 079°53'0 0.0
2018-Apr-17 14:28N 09°22' W 079°53'0 0.0
2018-Apr-17 13:58N 09°22' W 079°53'0 0.0
2018-Apr-17 13:28N 09°22' W 079°53'0 0.0
2018-Apr-17 12:58N 09°22' W 079°53'0 0.0
2018-Apr-17 12:28N 09°22' W 079°53'0 1.0
2018-Apr-17 12:01N 09°22' W 079°54'4 7.7
2018-Apr-17 11:30N 09°26' W 079°54'4 5.9
2018-Apr-17 10:45N 09°30' W 079°52'312.1
2018-Apr-17 10:28N 09°34' W 079°52'24215.8
2018-Apr-16 19:09N 10°18' W 075°50'316.9
2018-Apr-16 19:00N 10°18' W 075°48'816.3
2018-Apr-16 18:30N 10°19' W 075°39'610.9
2018-Apr-16 17:59N 10°19' W 075°34'5 9.1
2018-Apr-16 17:29N 10°23' W 075°31'0 0.5
2018-Apr-16 16:58N 10°23' W 075°31'0 0.0
2018-Apr-16 16:28N 10°23' W 075°31'0 0.0
2018-Apr-16 15:58N 10°23' W 075°31'0 0.0
2018-Apr-16 15:28N 10°23' W 075°31'0 0.0
2018-Apr-16 14:58N 10°23' W 075°31'0 0.0
2018-Apr-16 14:28N 10°23' W 075°31'0 0.0
2018-Apr-16 13:58N 10°23' W 075°31'0 0.0
2018-Apr-16 13:22N 10°23' W 075°31'0 0.0
2018-Apr-16 12:58N 10°23' W 075°31'0 0.0
2018-Apr-16 12:28N 10°23' W 075°31'0 0.0
2018-Apr-16 11:58N 10°23' W 075°31'0 0.0
2018-Apr-16 11:28N 10°23' W 075°31'0 0.0
2018-Apr-16 10:58N 10°23' W 075°31'0 0.0
2018-Apr-16 10:28N 10°23' W 075°31'0 0.0
2018-Apr-16 09:58N 10°23' W 075°31'0 0.0
2018-Apr-16 09:28N 10°23' W 075°31'0 0.0
2018-Apr-16 08:58N 10°23' W 075°31'0 0.0
2018-Apr-16 08:28N 10°23' W 075°31'0 0.1
2018-Apr-16 07:58N 10°23' W 075°31'0 0.0
2018-Apr-16 07:28N 10°23' W 075°31'0 0.0
2018-Apr-16 06:58N 10°23' W 075°31'0 0.1
2018-Apr-16 06:28N 10°23' W 075°31'0 0.0
2018-Apr-16 05:58N 10°23' W 075°31'0 0.0
2018-Apr-16 05:28N 10°23' W 075°31'0 0.0
2018-Apr-16 04:58N 10°23' W 075°31'0 0.0
2018-Apr-16 04:28N 10°23' W 075°31'0 0.0
2018-Apr-16 03:58N 10°23' W 075°31'0 0.0
2018-Apr-16 03:28N 10°23' W 075°31'0 0.0
2018-Apr-16 02:59N 10°23' W 075°31'2 4.3
2018-Apr-16 02:30N 10°21' W 075°32'5 9.0
2018-Apr-16 01:59N 10°19' W 075°36'3 6.5
2018-Apr-16 01:30N 10°19' W 075°39'3 6.4
2018-Apr-16 00:59N 10°17' W 075°42'1 1.5
2018-Apr-16 00:28N 10°18' W 075°43'2 3.5
2018-Apr-15 23:59N 10°20' W 075°43'510.1
2018-Apr-15 23:30N 10°23' W 075°47'4 7.7
2018-Apr-15 22:59N 10°26' W 075°48'510.4
2018-Apr-15 22:29N 10°31' W 075°48'2 3.9
2018-Apr-15 21:57N 10°33' W 075°50'713.6
2018-Apr-15 21:25N 10°40' W 075°49'614.3
2018-Apr-15 20:59N 10°46' W 075°48'714.0
2018-Apr-15 20:29N 10°53' W 075°49'  

Dump ship's entire track history